Time;durP1;ratioP1;P1;durP2;ratioP2;P2;SDS_P1;SDS_P2;PMS_P1;PMS_P2;Temp;Humidity;BMP_temperature;BMP_pressure;BME280_temperature;BME280_humidity;BME280_pressure;Samples;Min_cycle;Max_cycle;Signal;HPM_P1;HPM_P2
2022/08/03 00:01:47;;;;;;;53.50;21.13;;;;;;;;;;5131834;27;20049;-67
2022/08/03 00:04:14;;;;;;;35.30;17.92;;;;;;;;;;5132061;28;20043;-66
2022/08/03 00:06:41;;;;;;;40.95;16.60;;;;;;;;;;5131270;27;20126;-67
2022/08/03 00:09:07;;;;;;;31.48;16.50;;;;;;;;;;5131380;27;20103;-66
2022/08/03 00:11:34;;;;;;;24.08;15.60;;;;;;;;;;5132856;27;20138;-66
2022/08/03 00:14:01;;;;;;;55.42;19.20;;;;;;;;;;5135085;27;20118;-66
2022/08/03 00:16:27;;;;;;;55.05;20.38;;;;;;;;;;5135548;27;20050;-66
2022/08/03 00:18:54;;;;;;;83.70;22.42;;;;;;;;;;5135139;27;20043;-67
2022/08/03 00:21:20;;;;;;;30.63;19.92;;;;;;;;;;5135466;27;20039;-66
2022/08/03 00:23:47;;;;;;;74.63;22.00;;;;;;;;;;5134970;27;20031;-66
2022/08/03 00:26:19;;;;;;;43.50;19.92;;;;;;;;;;5135102;27;20080;-66
2022/08/03 00:28:45;;;;;;;50.38;19.38;;;;;;;;;;5134832;27;20039;-66
2022/08/03 00:31:12;;;;;;;43.55;19.45;;;;;;;;;;5135149;27;20036;-65
2022/08/03 00:33:39;;;;;;;41.35;18.88;;;;;;;;;;5135028;27;20039;-69
2022/08/03 00:36:25;;;;;;;67.20;21.73;;;;;;;;;;5134371;27;20740;-64
2022/08/03 00:38:52;;;;;;;39.78;19.90;;;;;;;;;;5135203;27;20103;-66
2022/08/03 00:41:18;;;;;;;45.47;20.98;;;;;;;;;;5135042;27;20027;-65
2022/08/03 00:43:46;;;;;;;71.00;23.90;;;;;;;;;;5134618;27;20456;-66
2022/08/03 00:46:12;;;;;;;60.53;22.52;;;;;;;;;;5134713;27;20047;-67
2022/08/03 00:48:47;;;;;;;43.67;20.38;;;;;;;;;;5134814;27;20039;-67
2022/08/03 00:51:13;;;;;;;31.15;18.23;;;;;;;;;;5134774;27;20122;-67
2022/08/03 00:53:40;;;;;;;38.88;19.05;;;;;;;;;;5134512;27;20036;-65
2022/08/03 00:56:06;;;;;;;47.72;23.02;;;;;;;;;;5134567;27;20043;-64
2022/08/03 00:58:33;;;;;;;43.85;21.75;;;;;;;;;;5135068;27;20047;-66
2022/08/03 01:01:00;;;;;;;36.53;20.63;;;;;;;;;;5134079;27;20126;-66
2022/08/03 01:03:26;;;;;;;59.55;24.38;;;;;;;;;;5134229;27;20448;-66
2022/08/03 01:05:59;;;;;;;69.30;25.25;;;;;;;;;;5134141;27;20046;-66
2022/08/03 01:08:52;;;;;;;42.83;23.42;;;;;;;;;;5134552;27;20439;-65
2022/08/03 01:11:27;;;;;;;49.47;26.60;;;;;;;;;;5050160;28;20051;-66
2022/08/03 01:14:14;;;;;;;65.35;25.50;;;;;;;;;;5032217;28;20084;-66
2022/08/03 01:16:48;;;;;;;56.60;24.25;;;;;;;;;;5040159;28;20550;-65
2022/08/03 01:19:24;;;;;;;68.95;24.63;;;;;;;;;;5034499;28;20064;-60
2022/08/03 01:21:53;;;;;;;45.60;24.00;;;;;;;;;;5035287;28;20704;-61
2022/08/03 01:24:39;;;;;;;51.78;22.63;;;;;;;;;;5034724;28;20049;-61
2022/08/03 01:27:10;;;;;;;60.83;24.80;;;;;;;;;;5034314;28;20045;-61
2022/08/03 01:29:51;;;;;;;58.17;24.98;;;;;;;;;;5034587;28;20493;-61
2022/08/03 01:32:24;;;;;;;71.90;26.27;;;;;;;;;;5034809;28;20044;-63
2022/08/03 01:35:12;;;;;;;90.28;27.83;;;;;;;;;;5035487;28;20506;-62
2022/08/03 01:37:41;;;;;;;44.08;26.52;;;;;;;;;;5031277;28;20116;-62
2022/08/03 01:40:08;;;;;;;40.63;25.70;;;;;;;;;;5034482;28;20088;-62
2022/08/03 01:42:35;;;;;;;74.28;24.75;;;;;;;;;;5033520;28;20406;-62
2022/08/03 01:45:02;;;;;;;47.92;23.25;;;;;;;;;;5034341;28;20153;-61
2022/08/03 01:47:29;;;;;;;43.15;22.77;;;;;;;;;;5054062;27;20062;-61
2022/08/03 01:49:56;;;;;;;77.57;22.73;;;;;;;;;;5133512;27;20469;-62
2022/08/03 01:52:23;;;;;;;62.38;21.27;;;;;;;;;;5133968;27;20070;-62
2022/08/03 01:54:50;;;;;;;49.80;19.42;;;;;;;;;;5133609;27;20034;-62
2022/08/03 01:57:18;;;;;;;66.20;19.23;;;;;;;;;;5132540;27;20081;-62
2022/08/03 01:59:45;;;;;;;46.85;17.27;;;;;;;;;;5133491;27;20096;-62
2022/08/03 02:02:13;;;;;;;31.02;17.30;;;;;;;;;;5133229;27;20035;-62
2022/08/03 02:05:00;;;;;;;56.13;18.23;;;;;;;;;;5133493;27;20043;-62
2022/08/03 02:07:27;;;;;;;27.80;17.63;;;;;;;;;;5133748;27;20070;-63
2022/08/03 02:09:55;;;;;;;85.43;22.83;;;;;;;;;;5132819;27;20088;-61
2022/08/03 02:12:23;;;;;;;37.97;18.38;;;;;;;;;;5132653;27;20035;-62
2022/08/03 02:14:50;;;;;;;51.28;18.38;;;;;;;;;;5132928;27;20035;-62
2022/08/03 02:17:18;;;;;;;60.63;20.27;;;;;;;;;;5132776;27;20042;-62
2022/08/03 02:20:05;;;;;;;52.17;20.42;;;;;;;;;;5132933;27;20426;-62
2022/08/03 02:22:32;;;;;;;53.50;19.92;;;;;;;;;;5133311;27;20043;-62
2022/08/03 02:24:59;;;;;;;37.15;19.42;;;;;;;;;;5132937;27;20122;-62
2022/08/03 02:27:26;;;;;;;33.33;18.45;;;;;;;;;;5132132;27;20069;-62
2022/08/03 02:29:55;;;;;;;64.05;21.02;;;;;;;;;;5132361;27;20092;-62
2022/08/03 02:32:25;;;;;;;55.58;20.52;;;;;;;;;;5132561;27;20114;-62
2022/08/03 02:34:54;;;;;;;80.20;24.75;;;;;;;;;;5130390;27;20276;-62
2022/08/03 02:37:24;;;;;;;54.25;21.50;;;;;;;;;;5132969;27;20046;-64
2022/08/03 02:39:53;;;;;;;49.05;22.42;;;;;;;;;;5132610;27;20114;-65
2022/08/03 02:42:20;;;;;;;39.10;21.80;;;;;;;;;;5131735;27;20039;-65
2022/08/03 02:44:48;;;;;;;46.03;21.55;;;;;;;;;;5132421;27;20036;-66
2022/08/03 02:47:16;;;;;;;56.30;22.10;;;;;;;;;;5132415;27;20050;-65
2022/08/03 02:49:43;;;;;;;53.13;21.70;;;;;;;;;;5128723;27;20047;-65
2022/08/03 02:52:19;;;;;;;46.63;21.48;;;;;;;;;;5131662;27;20559;-65
2022/08/03 02:54:47;;;;;;;89.30;24.35;;;;;;;;;;5132007;27;20043;-65
2022/08/03 02:57:15;;;;;;;121.03;25.65;;;;;;;;;;5131787;27;20031;-66
2022/08/03 02:59:42;;;;;;;78.15;22.13;;;;;;;;;;5132251;27;20512;-64
2022/08/03 03:02:09;;;;;;;41.45;18.15;;;;;;;;;;5132533;27;20118;-65
2022/08/03 03:04:36;;;;;;;61.72;20.58;;;;;;;;;;5132731;27;20051;-64
2022/08/03 03:07:10;;;;;;;37.58;17.98;;;;;;;;;;5131976;27;20057;-65
2022/08/03 03:09:38;;;;;;;38.50;16.75;;;;;;;;;;5131720;27;20119;-64
2022/08/03 03:12:09;;;;;;;48.70;19.02;;;;;;;;;;5131557;27;20078;-64
2022/08/03 03:14:36;;;;;;;44.20;22.55;;;;;;;;;;5132643;27;20144;-64
2022/08/03 03:17:03;;;;;;;76.45;23.83;;;;;;;;;;5131949;27;20088;-64
2022/08/03 03:19:31;;;;;;;47.92;19.63;;;;;;;;;;5132608;27;20130;-63
2022/08/03 03:21:59;;;;;;;44.78;19.17;;;;;;;;;;5131717;27;20036;-64
2022/08/03 03:24:26;;;;;;;40.33;18.90;;;;;;;;;;5131747;27;20511;-64
2022/08/03 03:26:53;;;;;;;58.00;18.58;;;;;;;;;;5131354;27;20035;-63
2022/08/03 03:29:20;;;;;;;62.63;17.63;;;;;;;;;;5131809;27;20043;-63
2022/08/03 03:31:47;;;;;;;43.05;17.85;;;;;;;;;;5118706;27;20054;-64
2022/08/03 03:34:13;;;;;;;81.25;18.63;;;;;;;;;;5131759;27;20419;-61
2022/08/03 03:36:41;;;;;;;29.27;15.85;;;;;;;;;;5131953;27;20035;-63
2022/08/03 03:39:09;;;;;;;32.08;14.93;;;;;;;;;;5131284;27;20050;-62
2022/08/03 03:41:42;;;;;;;47.15;16.25;;;;;;;;;;5131447;27;20110;-62
2022/08/03 03:44:08;;;;;;;33.75;14.60;;;;;;;;;;5131730;27;20150;-63
2022/08/03 03:46:36;;;;;;;50.20;15.23;;;;;;;;;;5133826;27;20541;-63
2022/08/03 03:49:04;;;;;;;27.15;13.85;;;;;;;;;;5135767;27;20035;-63
2022/08/03 03:51:30;;;;;;;36.90;14.80;;;;;;;;;;5135662;27;20074;-64
2022/08/03 03:53:58;;;;;;;68.47;17.27;;;;;;;;;;5135247;27;20055;-63
2022/08/03 03:56:24;;;;;;;50.08;16.58;;;;;;;;;;5135637;27;20466;-63
2022/08/03 03:58:51;;;;;;;38.35;15.90;;;;;;;;;;5135954;27;20089;-63
2022/08/03 04:01:18;;;;;;;76.00;18.23;;;;;;;;;;5135645;27;20480;-66
2022/08/03 04:03:45;;;;;;;51.33;15.63;;;;;;;;;;5135709;27;20043;-64
2022/08/03 04:11:45;;;;;;;63.00;15.98;;;;;;;;;;5135356;27;20039;-65
2022/08/03 04:14:14;;;;;;;76.90;33.70;;;;;;;;;;5135297;27;20039;-65
2022/08/03 04:16:43;;;;;;;63.80;24.20;;;;;;;;;;5135977;27;20130;-65
2022/08/03 04:19:18;;;;;;;51.03;19.52;;;;;;;;;;5134984;27;20126;-64
2022/08/03 04:21:50;;;;;;;64.28;15.98;;;;;;;;;;5135209;27;20046;-64
2022/08/03 04:24:18;;;;;;;57.58;16.23;;;;;;;;;;5135013;27;20035;-65
2022/08/03 04:26:46;;;;;;;82.05;16.77;;;;;;;;;;5134623;27;20109;-64
2022/08/03 04:29:18;;;;;;;49.17;14.87;;;;;;;;;;5135281;27;20481;-64
2022/08/03 04:31:45;;;;;;;37.97;14.00;;;;;;;;;;5122465;27;20035;-66
2022/08/03 04:34:12;;;;;;;40.97;14.05;;;;;;;;;;5135063;27;20193;-66
2022/08/03 04:36:43;;;;;;;41.28;14.65;;;;;;;;;;5093208;28;20526;-66
2022/08/03 04:39:13;;;;;;;71.93;22.67;;;;;;;;;;5093430;28;20040;-66
2022/08/03 04:41:42;;;;;;;38.25;16.98;;;;;;;;;;5094006;28;20138;-62
2022/08/03 04:44:30;;;;;;;51.20;17.58;;;;;;;;;;5093801;28;20044;-65
2022/08/03 04:46:57;;;;;;;50.78;13.77;;;;;;;;;;5093739;28;20032;-66
2022/08/03 04:49:24;;;;;;;36.67;13.40;;;;;;;;;;5094561;28;20058;-66
2022/08/03 04:51:51;;;;;;;68.95;16.55;;;;;;;;;;5092968;28;20093;-64
2022/08/03 04:54:18;;;;;;;54.97;13.60;;;;;;;;;;5093735;28;20500;-65
2022/08/03 04:56:44;;;;;;;59.55;13.38;;;;;;;;;;5092775;28;20136;-63
2022/08/03 04:59:11;;;;;;;67.30;13.55;;;;;;;;;;5093604;28;20127;-63
2022/08/03 05:01:38;;;;;;;29.20;12.23;;;;;;;;;;5094113;28;20066;-64
2022/08/03 05:04:05;;;;;;;36.67;11.13;;;;;;;;;;5093330;28;20489;-63
2022/08/03 05:06:31;;;;;;;45.97;11.45;;;;;;;;;;5091778;28;20028;-63
2022/08/03 05:08:58;;;;;;;50.85;11.20;;;;;;;;;;5092365;28;20696;-63
2022/08/03 05:11:25;;;;;;;39.05;10.93;;;;;;;;;;5093205;28;20043;-63
2022/08/03 05:13:51;;;;;;;51.95;11.77;;;;;;;;;;5093236;28;20151;-63
2022/08/03 05:16:18;;;;;;;31.10;9.38;;;;;;;;;;5093644;28;20044;-63
2022/08/03 05:18:44;;;;;;;26.50;8.25;;;;;;;;;;5092902;28;20405;-63
2022/08/03 05:21:15;;;;;;;85.03;29.25;;;;;;;;;;5091676;28;20557;-63
2022/08/03 05:23:42;;;;;;;203.63;21.10;;;;;;;;;;5091140;28;20032;-63
2022/08/03 05:26:13;;;;;;;51.75;9.32;;;;;;;;;;5091128;28;20428;-63
2022/08/03 05:28:39;;;;;;;76.45;10.43;;;;;;;;;;5086187;28;20059;-63
2022/08/03 05:31:16;;;;;;;81.57;11.18;;;;;;;;;;5091061;28;20047;-63
2022/08/03 05:33:43;;;;;;;37.50;8.25;;;;;;;;;;5091120;28;20115;-63
2022/08/03 05:36:10;;;;;;;53.20;8.70;;;;;;;;;;5124265;27;20043;-63
2022/08/03 05:38:36;;;;;;;27.98;7.50;;;;;;;;;;5134301;27;20185;-63
2022/08/03 05:41:03;;;;;;;89.97;10.98;;;;;;;;;;5133598;27;20046;-63
2022/08/03 05:43:49;;;;;;;28.23;7.20;;;;;;;;;;5133831;27;20074;-62
2022/08/03 05:46:16;;;;;;;27.65;7.60;;;;;;;;;;5133316;27;20070;-63
2022/08/03 05:48:42;;;;;;;59.28;9.82;;;;;;;;;;5133073;27;20035;-63
2022/08/03 05:51:09;;;;;;;153.43;16.35;;;;;;;;;;5133529;27;20463;-63
2022/08/03 05:53:37;;;;;;;58.88;24.33;;;;;;;;;;5133714;27;20050;-62
2022/08/03 05:56:04;;;;;;;73.38;11.10;;;;;;;;;;5133132;27;20035;-63
2022/08/03 05:58:42;;;;;;;33.20;9.25;;;;;;;;;;5133488;27;20050;-63
2022/08/03 06:01:08;;;;;;;39.53;8.70;;;;;;;;;;5133348;27;20043;-63
2022/08/03 06:03:35;;;;;;;53.08;10.20;;;;;;;;;;5132724;27;20092;-63
2022/08/03 06:06:01;;;;;;;31.63;8.30;;;;;;;;;;5131677;27;20540;-63
2022/08/03 06:08:28;;;;;;;32.10;8.35;;;;;;;;;;5132298;27;20114;-63
2022/08/03 06:10:54;;;;;;;84.50;11.70;;;;;;;;;;5132741;27;20147;-63
2022/08/03 06:13:21;;;;;;;23.17;7.88;;;;;;;;;;5133139;27;20408;-62
2022/08/03 06:15:47;;;;;;;35.35;8.98;;;;;;;;;;5132757;27;20037;-63
2022/08/03 06:18:14;;;;;;;42.60;12.73;;;;;;;;;;5132342;27;20047;-63
2022/08/03 06:20:40;;;;;;;34.97;9.43;;;;;;;;;;5133201;27;20122;-63
2022/08/03 06:23:07;;;;;;;42.58;9.85;;;;;;;;;;5132863;27;20118;-62
2022/08/03 06:25:43;;;;;;;31.75;9.48;;;;;;;;;;5133511;27;20043;-62
2022/08/03 06:28:09;;;;;;;34.78;9.10;;;;;;;;;;5132007;27;20127;-63
2022/08/03 06:30:49;;;;;;;96.10;13.50;;;;;;;;;;5132359;27;20484;-62
2022/08/03 06:33:15;;;;;;;126.38;16.52;;;;;;;;;;5132177;27;20473;-63
2022/08/03 06:35:42;;;;;;;51.10;11.00;;;;;;;;;;5132274;27;20154;-63
2022/08/03 06:38:11;;;;;;;81.68;12.57;;;;;;;;;;5132312;27;20039;-63
2022/08/03 06:40:41;;;;;;;32.30;10.05;;;;;;;;;;5133601;27;20036;-63
2022/08/03 06:43:07;;;;;;;33.47;11.15;;;;;;;;;;5132095;27;20035;-62
2022/08/03 06:45:38;;;;;;;80.35;13.38;;;;;;;;;;5132187;27;20084;-63
2022/08/03 06:48:04;;;;;;;40.42;11.30;;;;;;;;;;5132239;27;20130;-62
2022/08/03 06:50:32;;;;;;;33.35;10.70;;;;;;;;;;5132378;27;20039;-63
2022/08/03 06:52:58;;;;;;;66.70;13.32;;;;;;;;;;5132170;27;20126;-63
2022/08/03 06:55:25;;;;;;;46.33;11.20;;;;;;;;;;5133040;27;20454;-63
2022/08/03 06:57:52;;;;;;;51.50;18.90;;;;;;;;;;5131797;27;20492;-62
2022/08/03 07:00:18;;;;;;;109.38;19.10;;;;;;;;;;5132071;27;20146;-63
2022/08/03 07:02:45;;;;;;;48.30;14.75;;;;;;;;;;5131885;27;20092;-63
2022/08/03 07:05:13;;;;;;;41.40;13.77;;;;;;;;;;5132497;27;20035;-63
2022/08/03 07:07:39;;;;;;;119.72;17.70;;;;;;;;;;5132404;27;20104;-62
2022/08/03 07:10:06;;;;;;;67.47;15.50;;;;;;;;;;5131759;27;20037;-62
2022/08/03 07:12:34;;;;;;;106.50;76.55;;;;;;;;;;5132013;27;20066;-62
2022/08/03 07:15:01;;;;;;;49.63;14.18;;;;;;;;;;5131673;27;20385;-63
2022/08/03 07:17:29;;;;;;;35.40;13.88;;;;;;;;;;5131581;27;20126;-63
2022/08/03 07:19:56;;;;;;;48.33;15.77;;;;;;;;;;5131912;27;20138;-63
2022/08/03 07:22:23;;;;;;;55.65;15.20;;;;;;;;;;5130924;27;20065;-63
2022/08/03 07:24:49;;;;;;;38.45;14.05;;;;;;;;;;5127007;27;20115;-63
2022/08/03 07:27:16;;;;;;;38.95;13.88;;;;;;;;;;5130967;27;20039;-63
2022/08/03 07:29:42;;;;;;;60.25;14.90;;;;;;;;;;5131719;28;20039;-63
2022/08/03 07:32:09;;;;;;;55.58;14.23;;;;;;;;;;5131503;27;20080;-63
2022/08/03 07:34:35;;;;;;;52.60;14.30;;;;;;;;;;5131946;27;20077;-63
2022/08/03 07:37:02;;;;;;;84.15;15.63;;;;;;;;;;5131914;27;20055;-63
2022/08/03 07:39:28;;;;;;;40.42;12.45;;;;;;;;;;5131654;27;20557;-63
2022/08/03 07:41:55;;;;;;;56.67;14.18;;;;;;;;;;5131394;27;20067;-62
2022/08/03 07:44:22;;;;;;;54.75;13.65;;;;;;;;;;5131488;27;20455;-63
2022/08/03 07:46:49;;;;;;;36.15;13.82;;;;;;;;;;5132021;27;20118;-63
2022/08/03 07:49:17;;;;;;;33.97;12.98;;;;;;;;;;5131651;27;20095;-63
2022/08/03 07:51:43;;;;;;;76.57;15.88;;;;;;;;;;5131468;27;20039;-63
2022/08/03 07:54:10;;;;;;;37.05;13.63;;;;;;;;;;5131482;27;20047;-63
2022/08/03 07:56:37;;;;;;;41.75;13.30;;;;;;;;;;5131361;27;20093;-63
2022/08/03 07:59:04;;;;;;;78.90;15.13;;;;;;;;;;5131149;27;20573;-63
2022/08/03 08:01:34;;;;;;;43.55;19.92;;;;;;;;;;5131580;27;20130;-64
2022/08/03 08:04:01;;;;;;;38.88;13.32;;;;;;;;;;5130477;27;20047;-64
2022/08/03 08:06:27;;;;;;;62.15;13.38;;;;;;;;;;5131324;28;20197;-63
2022/08/03 08:08:58;;;;;;;33.58;11.60;;;;;;;;;;5131295;27;20122;-63
2022/08/03 08:11:24;;;;;;;25.58;9.73;;;;;;;;;;5131462;27;20518;-64
2022/08/03 08:13:51;;;;;;;98.25;15.23;;;;;;;;;;5131229;27;20051;-64
2022/08/03 08:16:17;;;;;;;243.45;25.98;;;;;;;;;;5131302;27;20407;-64
2022/08/03 08:18:44;;;;;;;66.38;12.32;;;;;;;;;;5131112;27;20502;-64
2022/08/03 08:21:10;;;;;;;46.78;11.77;;;;;;;;;;5131403;27;20042;-63
2022/08/03 08:23:37;;;;;;;51.33;11.88;;;;;;;;;;5131431;27;20063;-63
2022/08/03 08:26:08;;;;;;;37.92;11.77;;;;;;;;;;5117771;27;20050;-63
2022/08/03 08:28:34;;;;;;;57.70;11.23;;;;;;;;;;5131104;27;20049;-64
2022/08/03 08:31:01;;;;;;;22.63;8.25;;;;;;;;;;5131287;27;20039;-64
2022/08/03 08:33:28;;;;;;;38.88;10.55;;;;;;;;;;5133692;27;20035;-64
2022/08/03 08:36:14;;;;;;;46.63;10.50;;;;;;;;;;5131580;27;20060;-64
2022/08/03 08:38:43;;;;;;;34.72;16.95;;;;;;;;;;5134903;27;20043;-64
2022/08/03 08:41:10;;;;;;;51.88;10.93;;;;;;;;;;5135063;27;20131;-64
2022/08/03 08:43:37;;;;;;;29.27;8.30;;;;;;;;;;5134796;27;20043;-64
2022/08/03 08:46:06;;;;;;;47.08;14.73;;;;;;;;;;5134498;27;20062;-64
2022/08/03 08:48:34;;;;;;;64.47;11.45;;;;;;;;;;5134814;27;20044;-64
2022/08/03 08:51:01;;;;;;;35.28;7.97;;;;;;;;;;5134369;27;20043;-63
2022/08/03 08:53:28;;;;;;;35.63;8.68;;;;;;;;;;5134762;27;20047;-64
2022/08/03 08:55:59;;;;;;;55.17;8.95;;;;;;;;;;5134732;27;20146;-64
2022/08/03 08:58:33;;;;;;;32.25;7.55;;;;;;;;;;5134234;27;20527;-63
2022/08/03 09:01:00;;;;;;;53.13;8.07;;;;;;;;;;5134194;27;20472;-64
2022/08/03 09:03:26;;;;;;;53.83;8.98;;;;;;;;;;5134214;27;20050;-64
2022/08/03 09:05:57;;;;;;;45.95;18.27;;;;;;;;;;5134714;27;20551;-64
2022/08/03 09:08:24;;;;;;;78.70;9.68;;;;;;;;;;5134120;27;20073;-63
2022/08/03 09:10:51;;;;;;;40.92;7.75;;;;;;;;;;5135253;27;20074;-64
2022/08/03 09:13:17;;;;;;;119.15;13.48;;;;;;;;;;5133612;27;20508;-64
2022/08/03 09:15:45;;;;;;;51.92;9.05;;;;;;;;;;5133802;27;20069;-63
2022/08/03 09:18:29;;;;;;;34.25;7.43;;;;;;;;;;5133894;27;20027;-64
2022/08/03 09:21:16;;;;;;;34.10;7.53;;;;;;;;;;5133698;27;20492;-63
2022/08/03 09:23:57;;;;;;;22.23;6.72;;;;;;;;;;5127303;27;20126;-63
2022/08/03 09:26:30;;;;;;;75.82;9.52;;;;;;;;;;5133491;27;20040;-63
2022/08/03 09:28:58;;;;;;;34.05;7.32;;;;;;;;;;5134009;27;20031;-64
2022/08/03 09:31:35;;;;;;;41.17;7.40;;;;;;;;;;5134033;27;20062;-63
2022/08/03 09:34:11;;;;;;;25.10;7.38;;;;;;;;;;5133984;27;20031;-64
2022/08/03 09:36:38;;;;;;;25.23;6.55;;;;;;;;;;5133527;27;20104;-64
2022/08/03 09:39:15;;;;;;;56.58;7.45;;;;;;;;;;5133429;27;20039;-64
2022/08/03 09:41:44;;;;;;;37.20;7.00;;;;;;;;;;5133167;27;20027;-64
2022/08/03 09:44:11;;;;;;;58.35;8.35;;;;;;;;;;5133168;27;20501;-63
2022/08/03 09:46:57;;;;;;;34.95;7.28;;;;;;;;;;5134310;27;20120;-64
2022/08/03 09:49:24;;;;;;;41.47;7.22;;;;;;;;;;5133445;27;20040;-64
2022/08/03 09:51:51;;;;;;;24.75;6.68;;;;;;;;;;5133878;27;20476;-64
2022/08/03 09:54:38;;;;;;;29.27;6.43;;;;;;;;;;5133469;27;20063;-64
2022/08/03 09:57:04;;;;;;;24.25;6.60;;;;;;;;;;5132491;27;20074;-63
2022/08/03 09:59:31;;;;;;;32.15;6.28;;;;;;;;;;5133299;27;20271;-64
2022/08/03 10:01:59;;;;;;;59.35;8.65;;;;;;;;;;5133298;27;20039;-63
2022/08/03 10:04:26;;;;;;;25.27;6.63;;;;;;;;;;5133529;27;20039;-64
2022/08/03 10:07:03;;;;;;;131.18;12.07;;;;;;;;;;5133057;27;20031;-63
2022/08/03 10:09:29;;;;;;;44.20;7.18;;;;;;;;;;5133229;27;20084;-63
2022/08/03 10:11:58;;;;;;;43.05;8.00;;;;;;;;;;5132452;27;20122;-63
2022/08/03 10:14:29;;;;;;;49.92;7.47;;;;;;;;;;5132659;27;20439;-64
2022/08/03 10:16:55;;;;;;;70.97;8.30;;;;;;;;;;5133309;27;20047;-64
2022/08/03 10:19:22;;;;;;;22.40;5.68;;;;;;;;;;5133035;27;20475;-63
2022/08/03 10:21:50;;;;;;;25.58;5.80;;;;;;;;;;5132767;27;20058;-63
2022/08/03 10:24:23;;;;;;;83.18;8.23;;;;;;;;;;5132240;27;20043;-63
2022/08/03 10:26:51;;;;;;;77.82;7.88;;;;;;;;;;5132788;27;20054;-64
2022/08/03 10:29:20;;;;;;;33.00;5.55;;;;;;;;;;5132764;27;20539;-63
2022/08/03 10:31:47;;;;;;;41.92;6.55;;;;;;;;;;5133068;27;20043;-63
2022/08/03 10:34:32;;;;;;;34.00;5.88;;;;;;;;;;5132324;27;20047;-63
2022/08/03 10:37:00;;;;;;;45.35;6.85;;;;;;;;;;5129578;27;20092;-64
2022/08/03 10:39:28;;;;;;;23.02;5.32;;;;;;;;;;5131971;27;20070;-63
2022/08/03 10:41:57;;;;;;;57.58;6.93;;;;;;;;;;5132169;27;20062;-63
2022/08/03 10:44:28;;;;;;;29.50;5.72;;;;;;;;;;5132631;27;20050;-63
2022/08/03 10:46:55;;;;;;;36.53;5.60;;;;;;;;;;5128801;27;20042;-63
2022/08/03 10:49:23;;;;;;;36.47;5.28;;;;;;;;;;5132149;27;20206;-64
2022/08/03 10:52:01;;;;;;;61.65;7.03;;;;;;;;;;5132140;27;20038;-63
2022/08/03 10:57:33;;;;;;;30.13;5.07;;;;;;;;;;5132151;27;20057;-63
2022/08/03 10:57:54;;;;;;;27.42;5.55;;;;;;;;;;5132084;27;20035;-63
2022/08/03 11:00:24;;;;;;;22.77;5.32;;;;;;;;;;5132262;27;20039;-63
2022/08/03 11:03:02;;;;;;;84.85;9.65;;;;;;;;;;5131990;27;20039;-63
2022/08/03 11:05:29;;;;;;;61.88;7.50;;;;;;;;;;5132244;27;20066;-63
2022/08/03 11:08:14;;;;;;;50.13;6.65;;;;;;;;;;5132271;27;20043;-62
2022/08/03 11:10:41;;;;;;;58.85;6.93;;;;;;;;;;5131385;27;20046;-64
2022/08/03 11:13:08;;;;;;;36.88;6.25;;;;;;;;;;5131579;27;20051;-63
2022/08/03 11:15:34;;;;;;;40.30;6.45;;;;;;;;;;5131813;27;20047;-63
2022/08/03 11:18:06;;;;;;;60.47;7.70;;;;;;;;;;5131626;27;20058;-63
2022/08/03 11:20:42;;;;;;;46.67;6.72;;;;;;;;;;5118670;27;20046;-64
2022/08/03 11:23:09;;;;;;;92.95;8.75;;;;;;;;;;5130622;27;20047;-63
2022/08/03 11:25:54;;;;;;;46.50;6.82;;;;;;;;;;5132073;27;20134;-63
2022/08/03 11:28:24;;;;;;;61.75;7.57;;;;;;;;;;5131507;27;20035;-63
2022/08/03 11:30:52;;;;;;;40.28;6.13;;;;;;;;;;5131621;27;20031;-63
2022/08/03 11:33:29;;;;;;;31.33;5.97;;;;;;;;;;5131828;27;20063;-63
2022/08/03 11:35:59;;;;;;;36.55;5.93;;;;;;;;;;5128180;27;20542;-63
2022/08/03 11:38:26;;;;;;;66.55;7.63;;;;;;;;;;5131418;27;20043;-63
2022/08/03 11:40:53;;;;;;;49.58;6.97;;;;;;;;;;5132044;27;20564;-63
2022/08/03 11:43:28;;;;;;;35.78;6.15;;;;;;;;;;5131273;27;20039;-63
2022/08/03 11:45:58;;;;;;;31.85;5.47;;;;;;;;;;5131667;27;20092;-63
2022/08/03 11:48:26;;;;;;;53.95;6.97;;;;;;;;;;5131323;28;20039;-63
2022/08/03 11:50:53;;;;;;;59.95;7.20;;;;;;;;;;5131618;27;20488;-63
2022/08/03 11:53:20;;;;;;;25.63;5.25;;;;;;;;;;5131568;27;20047;-63
2022/08/03 11:55:49;;;;;;;45.47;6.18;;;;;;;;;;5132090;27;20049;-63
2022/08/03 11:58:16;;;;;;;42.05;6.47;;;;;;;;;;5131017;27;20126;-63
2022/08/03 12:01:07;;;;;;;112.82;10.13;;;;;;;;;;5130952;27;20123;-64
2022/08/03 12:03:33;;;;;;;21.63;5.25;;;;;;;;;;5131381;27;20043;-63
2022/08/03 12:06:01;;;;;;;38.92;5.60;;;;;;;;;;5131563;27;20519;-63
2022/08/03 12:08:30;;;;;;;54.50;6.93;;;;;;;;;;5134207;27;20498;-63
2022/08/03 12:10:58;;;;;;;63.70;6.97;;;;;;;;;;5135493;27;20068;-65
2022/08/03 12:13:25;;;;;;;31.83;5.72;;;;;;;;;;5135114;27;20042;-64
2022/08/03 12:16:19;;;;;;;26.77;6.05;;;;;;;;;;5135490;27;20046;-63
2022/08/03 12:18:54;;;;;;;60.78;7.45;;;;;;;;;;5131421;27;20078;-63
2022/08/03 12:21:23;;;;;;;27.95;5.57;;;;;;;;;;5126394;27;20039;-63
2022/08/03 12:23:50;;;;;;;31.38;5.75;;;;;;;;;;5135105;27;20046;-63
2022/08/03 12:26:16;;;;;;;68.10;7.43;;;;;;;;;;5135186;27;20098;-63
2022/08/03 12:28:47;;;;;;;44.05;5.95;;;;;;;;;;5135369;27;20043;-63
2022/08/03 12:31:15;;;;;;;35.55;5.50;;;;;;;;;;5135198;27;20093;-63
2022/08/03 12:34:02;;;;;;;42.83;6.88;;;;;;;;;;5134861;27;20042;-63
2022/08/03 12:36:29;;;;;;;43.30;5.30;;;;;;;;;;5134229;27;20412;-64
2022/08/03 12:39:07;;;;;;;47.22;6.40;;;;;;;;;;5133543;27;20126;-63
2022/08/03 12:41:36;;;;;;;42.38;6.63;;;;;;;;;;5134668;27;20046;-63
2022/08/03 12:44:04;;;;;;;73.93;7.88;;;;;;;;;;5134615;27;20041;-63
2022/08/03 12:46:35;;;;;;;52.33;6.28;;;;;;;;;;5135200;27;20051;-63
2022/08/03 12:49:02;;;;;;;26.25;4.78;;;;;;;;;;5134563;27;20104;-63
2022/08/03 12:51:30;;;;;;;65.25;7.82;;;;;;;;;;5133935;27;20473;-63
2022/08/03 12:53:58;;;;;;;35.17;6.03;;;;;;;;;;5134559;27;20027;-63
2022/08/03 12:56:24;;;;;;;65.32;7.30;;;;;;;;;;5134517;27;20047;-63
2022/08/03 12:58:51;;;;;;;84.53;8.70;;;;;;;;;;5134492;27;20137;-63
2022/08/03 13:01:21;;;;;;;34.50;5.38;;;;;;;;;;5134360;27;20043;-63
2022/08/03 13:03:49;;;;;;;83.88;9.02;;;;;;;;;;5134014;27;20076;-63
2022/08/03 13:06:25;;;;;;;62.72;7.25;;;;;;;;;;5134390;27;20084;-63
2022/08/03 13:09:02;;;;;;;51.20;6.97;;;;;;;;;;5134254;27;20442;-63
2022/08/03 13:11:29;;;;;;;52.50;7.22;;;;;;;;;;5134244;27;20058;-63
2022/08/03 13:14:15;;;;;;;83.13;8.65;;;;;;;;;;5134131;27;20050;-63
2022/08/03 13:16:45;;;;;;;67.72;8.40;;;;;;;;;;5129577;27;20084;-64
2022/08/03 13:19:12;;;;;;;16.67;4.43;;;;;;;;;;5132016;27;20047;-63
2022/08/03 13:21:41;;;;;;;37.92;6.55;;;;;;;;;;5134021;27;20039;-63
2022/08/03 13:24:28;;;;;;;26.63;5.45;;;;;;;;;;5134301;27;20035;-64
2022/08/03 13:26:55;;;;;;;74.40;8.18;;;;;;;;;;5133505;27;20035;-63
2022/08/03 13:29:22;;;;;;;69.07;7.78;;;;;;;;;;5133746;27;20039;-63
2022/08/03 13:31:48;;;;;;;30.90;5.80;;;;;;;;;;5134668;27;20067;-63
2022/08/03 13:34:16;;;;;;;33.28;5.55;;;;;;;;;;5133536;27;20052;-62
2022/08/03 13:36:48;;;;;;;49.63;6.53;;;;;;;;;;5133349;27;20027;-63
2022/08/03 13:39:35;;;;;;;19.55;4.57;;;;;;;;;;5133373;27;20063;-63
2022/08/03 13:42:22;;;;;;;49.47;6.80;;;;;;;;;;5133104;27;20043;-63
2022/08/03 13:44:48;;;;;;;134.98;13.02;;;;;;;;;;5133801;27;20110;-63
2022/08/03 13:47:15;;;;;;;88.78;8.68;;;;;;;;;;5133260;27;20118;-63
2022/08/03 13:49:41;;;;;;;19.98;4.47;;;;;;;;;;5133878;27;20082;-63
2022/08/03 13:52:34;;;;;;;57.70;7.00;;;;;;;;;;5133534;27;20408;-63
2022/08/03 13:55:02;;;;;;;154.02;13.27;;;;;;;;;;5133089;27;20548;-63
2022/08/03 13:57:29;;;;;;;44.72;6.05;;;;;;;;;;5132855;27;20114;-63
2022/08/03 14:00:16;;;;;;;37.75;5.97;;;;;;;;;;5133274;27;20404;-63
2022/08/03 14:02:55;;;;;;;52.22;6.35;;;;;;;;;;5132781;27;20452;-63
2022/08/03 14:05:33;;;;;;;39.00;6.20;;;;;;;;;;5133485;27;20072;-63
2022/08/03 14:07:59;;;;;;;36.80;5.78;;;;;;;;;;5134174;27;20510;-63
2022/08/03 14:10:31;;;;;;;43.72;6.38;;;;;;;;;;5133634;27;20054;-63
2022/08/03 14:12:59;;;;;;;37.72;5.93;;;;;;;;;;5132429;27;20039;-63
2022/08/03 14:15:27;;;;;;;31.20;5.68;;;;;;;;;;5132734;27;20572;-63
2022/08/03 14:17:54;;;;;;;47.00;6.80;;;;;;;;;;5132694;27;20035;-63
2022/08/03 14:20:20;;;;;;;59.00;7.13;;;;;;;;;;5132781;27;20058;-64
2022/08/03 14:23:05;;;;;;;52.53;6.55;;;;;;;;;;5132902;27;20047;-63
2022/08/03 14:25:32;;;;;;;33.33;6.45;;;;;;;;;;5133130;27;20408;-64
2022/08/03 14:28:18;;;;;;;76.18;8.30;;;;;;;;;;5131817;27;20039;-63
2022/08/03 14:30:45;;;;;;;49.25;6.35;;;;;;;;;;5131615;27;20045;-65
2022/08/03 14:33:11;;;;;;;54.45;6.35;;;;;;;;;;5132738;27;20035;-63
2022/08/03 14:35:38;;;;;;;51.10;7.10;;;;;;;;;;5132046;27;20062;-63
2022/08/03 14:38:05;;;;;;;249.80;18.63;;;;;;;;;;5132715;27;20054;-63
2022/08/03 14:40:31;;;;;;;132.30;12.00;;;;;;;;;;5133220;27;20045;-63
2022/08/03 14:42:58;;;;;;;91.18;9.35;;;;;;;;;;5131978;27;20061;-63